createdAt,value
2018-01-07T00:00:13.690Z,18.80
2018-01-07T00:01:13.704Z,19.20
2018-01-07T00:02:13.769Z,19.70
2018-01-07T00:03:13.727Z,19.60
2018-01-07T00:04:34.707Z,18.80
2018-01-07T00:05:13.709Z,19.80
2018-01-07T00:06:13.689Z,19.80
2018-01-07T00:07:13.699Z,19.60
2018-01-07T00:08:13.712Z,19.80
2018-01-07T00:09:13.718Z,19.90
2018-01-07T00:10:34.709Z,19.50
2018-01-07T00:11:13.724Z,20.20
2018-01-07T00:12:13.702Z,20.40
2018-01-07T00:13:13.685Z,19.60
2018-01-07T00:14:13.686Z,20.40
2018-01-07T00:15:13.789Z,19.80
2018-01-07T00:16:34.720Z,19.90
2018-01-07T00:17:13.712Z,19.80
2018-01-07T00:18:13.714Z,19.70
2018-01-07T00:19:13.707Z,20.40
2018-01-07T00:20:13.709Z,20.40
2018-01-07T00:21:13.719Z,18.80
2018-01-07T00:22:34.697Z,20.50
2018-01-07T00:23:13.698Z,19.60
2018-01-07T00:24:13.697Z,19.40
2018-01-07T00:25:13.696Z,19.70
2018-01-07T00:26:13.774Z,19.40
2018-01-07T00:27:13.696Z,19.70
2018-01-07T00:28:34.703Z,19.80
2018-01-07T00:29:13.704Z,21.30
2018-01-07T00:30:13.711Z,20.60
2018-01-07T00:31:13.692Z,20.20
2018-01-07T00:32:13.692Z,19.50
2018-01-07T00:33:13.694Z,18.80
2018-01-07T00:34:34.805Z,19.40
2018-01-07T00:35:13.717Z,19.80
2018-01-07T00:36:13.689Z,19.90
2018-01-07T00:37:13.737Z,20.00
2018-01-07T00:38:13.690Z,19.50
2018-01-07T00:39:13.716Z,20.20
2018-01-07T00:40:34.765Z,20.10
2018-01-07T00:41:13.750Z,21.00
2018-01-07T00:42:13.673Z,20.00
2018-01-07T00:43:13.725Z,19.90
2018-01-07T00:44:13.686Z,19.20
2018-01-07T00:45:13.686Z,20.40
2018-01-07T00:46:34.723Z,19.20
2018-01-07T00:47:13.702Z,20.10
2018-01-07T00:48:13.681Z,19.70
2018-01-07T00:49:13.682Z,21.20
2018-01-07T00:50:13.708Z,20.40
2018-01-07T00:51:13.714Z,19.50
2018-01-07T00:52:34.713Z,19.50
2018-01-07T00:53:13.689Z,20.00
2018-01-07T00:54:13.702Z,20.10
2018-01-07T00:55:13.721Z,20.50
2018-01-07T00:56:13.715Z,20.10
2018-01-07T00:57:13.718Z,19.90
2018-01-07T00:58:34.666Z,20.10
2018-01-07T00:59:13.676Z,20.80
2018-01-07T01:00:13.715Z,20.80
2018-01-07T01:01:13.745Z,21.30
2018-01-07T01:02:13.698Z,20.50
2018-01-07T01:03:13.712Z,20.60
2018-01-07T01:04:34.700Z,20.30
2018-01-07T01:05:13.715Z,21.20
2018-01-07T01:06:13.731Z,19.80
2018-01-07T01:07:13.696Z,19.20
2018-01-07T01:08:13.682Z,19.90
2018-01-07T01:09:13.714Z,21.40
2018-01-07T01:10:34.704Z,19.90
2018-01-07T01:11:13.685Z,18.70
2018-01-07T01:12:13.664Z,19.80
2018-01-07T01:13:13.664Z,19.90
2018-01-07T01:14:13.678Z,19.90
2018-01-07T01:15:13.669Z,19.40
2018-01-07T01:16:34.684Z,19.10
2018-01-07T01:17:13.694Z,19.80
2018-01-07T01:18:13.682Z,18.50
2018-01-07T01:19:13.686Z,19.10
2018-01-07T01:20:13.654Z,19.10
2018-01-07T01:21:13.667Z,18.30
2018-01-07T01:22:34.685Z,18.80
2018-01-07T01:23:13.675Z,18.40
2018-01-07T01:24:13.651Z,18.60
2018-01-07T01:25:13.669Z,19.00
2018-01-07T01:26:13.788Z,19.10
2018-01-07T01:27:13.685Z,18.80
2018-01-07T01:28:34.680Z,17.20
2018-01-07T01:29:13.656Z,17.70
2018-01-07T01:30:13.695Z,18.20
2018-01-07T01:31:13.692Z,17.30
2018-01-07T01:32:13.664Z,17.20
2018-01-07T01:33:13.696Z,16.90
2018-01-07T01:34:34.696Z,17.60
2018-01-07T01:35:13.711Z,17.40
2018-01-07T01:36:13.758Z,16.80
2018-01-07T01:37:13.656Z,17.40
2018-01-07T01:38:13.732Z,16.10
2018-01-07T01:39:14.194Z,16.60
2018-01-07T01:40:34.665Z,16.60
2018-01-07T01:41:13.712Z,16.00
2018-01-07T01:42:13.702Z,16.80
2018-01-07T01:43:13.681Z,16.20
2018-01-07T01:44:13.693Z,16.50
2018-01-07T01:45:13.668Z,16.00
2018-01-07T01:46:34.682Z,16.30
2018-01-07T01:47:13.658Z,16.40
2018-01-07T01:48:13.674Z,16.00
2018-01-07T01:49:13.687Z,15.60
2018-01-07T01:50:13.709Z,15.70
2018-01-07T01:51:13.653Z,15.20
2018-01-07T01:52:34.702Z,15.10
2018-01-07T01:53:13.748Z,15.00
2018-01-07T01:54:13.669Z,15.20
2018-01-07T01:55:13.649Z,14.70
2018-01-07T01:56:13.642Z,15.30
2018-01-07T01:57:13.655Z,15.00
2018-01-07T01:58:34.659Z,14.80
2018-01-07T01:59:13.677Z,14.50
2018-01-07T02:00:13.649Z,14.20
2018-01-07T02:01:13.671Z,14.50
2018-01-07T02:02:13.668Z,14.60
2018-01-07T02:03:13.682Z,14.70
2018-01-07T02:04:34.664Z,14.30
2018-01-07T02:05:13.649Z,14.20
2018-01-07T02:06:13.674Z,14.00
2018-01-07T02:07:13.724Z,13.60
2018-01-07T02:08:13.642Z,13.80
2018-01-07T02:09:13.657Z,13.70
2018-01-07T02:10:34.648Z,13.10
2018-01-07T02:11:13.683Z,13.50
2018-01-07T02:12:13.645Z,13.50
2018-01-07T02:13:13.639Z,12.80
2018-01-07T02:14:13.691Z,12.30
2018-01-07T02:15:13.680Z,13.30
2018-01-07T02:16:34.681Z,13.70
2018-01-07T02:17:13.638Z,13.20
2018-01-07T02:18:13.672Z,12.60
2018-01-07T02:19:13.642Z,12.60
2018-01-07T02:20:13.671Z,13.00
2018-01-07T02:21:13.640Z,12.40
2018-01-07T02:22:34.670Z,12.40
2018-01-07T02:23:13.680Z,12.50
2018-01-07T02:24:13.657Z,12.00
2018-01-07T02:25:13.675Z,12.50
2018-01-07T02:26:13.641Z,12.10
2018-01-07T02:27:13.661Z,11.80
2018-01-07T02:28:35.146Z,12.50
2018-01-07T02:29:13.668Z,11.60
2018-01-07T02:30:13.648Z,11.60
2018-01-07T02:31:13.671Z,10.90
2018-01-07T02:32:13.636Z,11.40
2018-01-07T02:33:13.642Z,11.50
2018-01-07T02:34:34.672Z,10.90
2018-01-07T02:35:13.682Z,10.80
2018-01-07T02:36:13.636Z,10.90
2018-01-07T02:37:14.264Z,10.70
2018-01-07T02:38:13.653Z,10.90
2018-01-07T02:39:13.867Z,11.10
2018-01-07T02:40:34.651Z,10.10
2018-01-07T02:41:13.641Z,10.70
2018-01-07T02:42:13.626Z,9.90
2018-01-07T02:43:13.715Z,10.40
2018-01-07T02:44:13.634Z,10.40
2018-01-07T02:45:13.664Z,10.10
2018-01-07T02:46:34.654Z,10.20
2018-01-07T02:47:13.659Z,9.90
2018-01-07T02:48:13.621Z,9.10
2018-01-07T02:49:13.621Z,9.80
2018-01-07T02:50:13.686Z,9.50
2018-01-07T02:51:13.653Z,9.50
2018-01-07T02:52:34.649Z,9.30
2018-01-07T02:53:13.629Z,9.30
2018-01-07T02:54:13.642Z,8.70
2018-01-07T02:55:13.643Z,9.30
2018-01-07T02:56:13.649Z,9.00
2018-01-07T02:57:13.627Z,8.80
2018-01-07T02:58:34.688Z,8.70
2018-01-07T02:59:13.641Z,9.10
2018-01-07T03:00:13.646Z,9.00
2018-01-07T03:01:13.660Z,9.40
2018-01-07T03:02:13.616Z,8.70
2018-01-07T03:03:13.655Z,8.50
2018-01-07T03:04:34.639Z,8.50
2018-01-07T03:05:13.640Z,8.60
2018-01-07T03:06:13.614Z,9.20
2018-01-07T03:07:13.668Z,8.50
2018-01-07T03:08:13.658Z,8.60
2018-01-07T03:09:13.669Z,9.40
2018-01-07T03:10:34.630Z,8.50
2018-01-07T03:11:13.603Z,8.40
2018-01-07T03:12:13.618Z,8.70
2018-01-07T03:13:13.650Z,8.70
2018-01-07T03:14:13.631Z,8.80
2018-01-07T03:15:13.625Z,8.60
2018-01-07T03:16:34.621Z,9.10
2018-01-07T03:17:13.619Z,8.70
2018-01-07T03:18:13.641Z,8.30
2018-01-07T03:19:13.613Z,8.30
2018-01-07T03:20:13.650Z,8.60
2018-01-07T03:21:13.633Z,7.80
2018-01-07T03:22:34.695Z,8.20
2018-01-07T03:23:13.665Z,7.60
2018-01-07T03:24:13.702Z,8.80
2018-01-07T03:25:13.593Z,8.40
2018-01-07T03:26:13.602Z,7.80
2018-01-07T03:27:13.617Z,8.50
2018-01-07T03:28:34.623Z,9.00
2018-01-07T03:29:13.621Z,8.40
2018-01-07T03:30:14.241Z,8.50
2018-01-07T03:31:13.616Z,8.00
2018-01-07T03:32:13.640Z,8.50
2018-01-07T03:33:13.653Z,8.50
2018-01-07T03:34:34.611Z,8.20
2018-01-07T03:35:13.679Z,8.30
2018-01-07T03:36:13.670Z,8.30
2018-01-07T03:37:13.590Z,8.80
2018-01-07T03:38:13.664Z,8.60
2018-01-07T03:39:13.637Z,8.20
2018-01-07T03:40:34.718Z,8.50
2018-01-07T03:41:13.599Z,8.30
2018-01-07T03:42:13.682Z,8.10
2018-01-07T03:43:13.612Z,8.30
2018-01-07T03:44:13.660Z,9.00
2018-01-07T03:45:13.601Z,8.50
2018-01-07T03:46:34.630Z,9.00
2018-01-07T03:47:13.608Z,9.10
2018-01-07T03:48:13.637Z,8.50
2018-01-07T03:49:13.619Z,8.70
2018-01-07T03:50:13.602Z,9.10
2018-01-07T03:51:13.594Z,9.40
2018-01-07T03:52:34.592Z,8.80
2018-01-07T03:53:13.587Z,9.00
2018-01-07T03:54:13.609Z,8.40
2018-01-07T03:55:13.585Z,9.00
2018-01-07T03:56:13.596Z,9.30
2018-01-07T03:57:13.590Z,9.10
2018-01-07T03:58:34.627Z,9.20
2018-01-07T03:59:13.586Z,9.50
2018-01-07T04:00:13.626Z,9.00
2018-01-07T04:01:13.628Z,9.20
2018-01-07T04:02:13.656Z,9.10
2018-01-07T04:03:13.580Z,9.80
2018-01-07T04:04:34.641Z,9.10
2018-01-07T04:05:13.656Z,9.10
2018-01-07T04:06:13.614Z,9.10
2018-01-07T04:07:13.593Z,8.40
2018-01-07T04:08:13.686Z,9.30
2018-01-07T04:09:13.567Z,9.20
2018-01-07T04:10:34.594Z,8.90
2018-01-07T04:11:13.596Z,9.00
2018-01-07T04:12:13.608Z,9.20
2018-01-07T04:13:13.576Z,9.40
2018-01-07T04:14:13.577Z,8.70
2018-01-07T04:15:13.646Z,9.40
2018-01-07T04:16:34.593Z,9.80
2018-01-07T04:17:13.577Z,10.40
2018-01-07T04:18:13.689Z,9.40
2018-01-07T04:19:13.653Z,9.20
2018-01-07T04:20:13.577Z,9.60
2018-01-07T04:21:13.611Z,9.30
2018-01-07T04:22:35.219Z,9.40
2018-01-07T04:23:13.613Z,9.70
2018-01-07T04:24:13.590Z,8.70
2018-01-07T04:25:13.636Z,9.10
2018-01-07T04:26:13.596Z,9.60
2018-01-07T04:27:13.577Z,9.80
2018-01-07T04:28:34.608Z,9.60
2018-01-07T04:29:13.569Z,8.90
2018-01-07T04:30:13.597Z,9.30
2018-01-07T04:31:13.600Z,9.30
2018-01-07T04:32:13.591Z,9.30
2018-01-07T04:33:13.561Z,8.60
2018-01-07T04:34:34.622Z,8.90
2018-01-07T04:35:13.562Z,8.80
2018-01-07T04:36:13.550Z,8.50
2018-01-07T04:37:15.333Z,8.80
2018-01-07T04:38:13.554Z,8.50
2018-01-07T04:39:13.558Z,8.90
2018-01-07T04:40:34.583Z,8.60
2018-01-07T04:41:13.609Z,9.30
2018-01-07T04:42:13.674Z,9.60
2018-01-07T04:43:13.557Z,9.20
2018-01-07T04:44:13.573Z,8.40
2018-01-07T04:45:13.639Z,8.50
2018-01-07T04:46:34.680Z,8.50
2018-01-07T04:47:13.602Z,9.50
2018-01-07T04:48:13.581Z,9.40
2018-01-07T04:49:13.585Z,9.90
2018-01-07T04:50:13.590Z,9.20
2018-01-07T04:51:13.567Z,9.80
2018-01-07T04:52:34.633Z,9.70
2018-01-07T04:53:13.640Z,9.60
2018-01-07T04:54:13.546Z,9.10
2018-01-07T04:55:13.547Z,9.60
2018-01-07T04:56:13.573Z,9.90
2018-01-07T04:57:13.561Z,9.50
2018-01-07T04:58:34.556Z,10.00
2018-01-07T04:59:13.564Z,9.90
2018-01-07T05:00:13.542Z,9.60
2018-01-07T05:01:13.641Z,10.30
2018-01-07T05:02:13.561Z,10.40
2018-01-07T05:03:13.605Z,10.10
2018-01-07T05:04:34.604Z,10.20
2018-01-07T05:05:13.564Z,10.40
2018-01-07T05:06:13.579Z,10.30
2018-01-07T05:07:13.529Z,10.10
2018-01-07T05:08:13.603Z,10.60
2018-01-07T05:09:13.540Z,10.50
2018-01-07T05:10:34.661Z,11.10
2018-01-07T05:11:13.549Z,10.50
2018-01-07T05:12:13.585Z,11.30
2018-01-07T05:13:13.566Z,10.80
2018-01-07T05:14:13.561Z,10.20
2018-01-07T05:15:13.564Z,10.20
2018-01-07T05:16:34.577Z,10.70
2018-01-07T05:17:13.533Z,10.60
2018-01-07T05:18:13.597Z,10.20
2018-01-07T05:19:13.515Z,10.30
2018-01-07T05:20:13.545Z,9.90
2018-01-07T05:21:13.602Z,10.20
2018-01-07T05:22:34.572Z,9.90
2018-01-07T05:23:13.573Z,10.20
2018-01-07T05:24:13.561Z,9.50
2018-01-07T05:25:13.531Z,10.00
2018-01-07T05:26:13.659Z,9.40
2018-01-07T05:27:13.539Z,8.70
2018-01-07T05:28:34.557Z,9.30
2018-01-07T05:29:13.563Z,9.70
2018-01-07T05:30:13.521Z,9.40
2018-01-07T05:31:13.532Z,9.10
2018-01-07T05:32:13.540Z,8.20
2018-01-07T05:33:13.526Z,8.20
2018-01-07T05:34:34.533Z,8.20
2018-01-07T05:35:13.612Z,8.30
2018-01-07T05:36:13.508Z,7.80
2018-01-07T05:37:13.527Z,7.70
2018-01-07T05:38:13.517Z,7.20
2018-01-07T05:39:13.619Z,6.10
2018-01-07T05:40:34.559Z,6.10
2018-01-07T05:41:13.530Z,6.50
2018-01-07T05:42:13.567Z,6.50
2018-01-07T05:43:13.536Z,6.00
2018-01-07T05:44:13.507Z,5.60
2018-01-07T05:45:13.572Z,5.50
2018-01-07T05:46:34.605Z,5.60
2018-01-07T05:47:13.513Z,5.50
2018-01-07T05:48:13.518Z,5.20
2018-01-07T05:49:13.539Z,5.30
2018-01-07T05:50:13.499Z,5.10
2018-01-07T05:51:13.520Z,5.10
2018-01-07T05:52:34.506Z,5.40
2018-01-07T05:53:13.512Z,5.30
2018-01-07T05:54:13.516Z,5.50
2018-01-07T05:55:13.489Z,4.70
2018-01-07T05:56:13.525Z,5.40
2018-01-07T05:57:13.539Z,4.90
2018-01-07T05:58:34.552Z,4.60
2018-01-07T05:59:13.514Z,4.60
2018-01-07T06:00:13.502Z,4.40
2018-01-07T06:01:13.506Z,4.10
2018-01-07T06:02:13.543Z,4.60
2018-01-07T06:03:13.526Z,4.60
2018-01-07T06:04:34.514Z,4.10
2018-01-07T06:05:13.497Z,4.00
2018-01-07T06:06:13.510Z,4.00
2018-01-07T06:07:13.514Z,3.60
2018-01-07T06:08:13.534Z,4.20
2018-01-07T06:09:13.507Z,3.60
2018-01-07T06:10:34.520Z,3.90
2018-01-07T06:11:13.549Z,3.70
2018-01-07T06:12:13.564Z,3.50
2018-01-07T06:13:13.481Z,3.60
2018-01-07T06:14:13.474Z,3.50
2018-01-07T06:15:13.494Z,3.40
2018-01-07T06:16:34.587Z,3.40
2018-01-07T06:17:13.485Z,3.20
2018-01-07T06:18:13.504Z,3.60
2018-01-07T06:19:13.541Z,2.80
2018-01-07T06:20:13.476Z,3.40
2018-01-07T06:21:13.465Z,3.30
2018-01-07T06:22:34.525Z,2.90
2018-01-07T06:23:13.540Z,3.50
2018-01-07T06:24:13.526Z,3.10
2018-01-07T06:25:13.539Z,3.10
2018-01-07T06:26:13.461Z,2.70
2018-01-07T06:27:13.526Z,3.00
2018-01-07T06:28:34.493Z,2.90
2018-01-07T06:29:13.462Z,2.70
2018-01-07T06:30:13.489Z,2.70
2018-01-07T06:31:13.542Z,2.80
2018-01-07T06:32:13.485Z,2.50
2018-01-07T06:33:13.458Z,2.90
2018-01-07T06:34:34.484Z,2.60
2018-01-07T06:35:13.519Z,2.80
2018-01-07T06:36:13.483Z,3.10
2018-01-07T06:37:13.487Z,2.90
2018-01-07T06:38:13.457Z,2.60
2018-01-07T06:39:13.499Z,2.70
2018-01-07T06:40:34.458Z,2.70
2018-01-07T06:41:13.443Z,2.60
2018-01-07T06:42:13.451Z,3.60
2018-01-07T06:43:13.521Z,2.40
2018-01-07T06:44:13.477Z,2.60
2018-01-07T06:45:13.472Z,2.60
2018-01-07T06:46:34.482Z,2.60
2018-01-07T06:47:13.509Z,2.80
2018-01-07T06:48:13.458Z,2.70
2018-01-07T06:49:13.476Z,2.70
2018-01-07T06:50:13.478Z,2.70
2018-01-07T06:51:13.431Z,2.60
2018-01-07T06:52:34.467Z,2.60
2018-01-07T06:53:13.437Z,2.40
2018-01-07T06:54:13.472Z,2.70
2018-01-07T06:55:13.451Z,2.50
2018-01-07T06:56:13.420Z,2.40
2018-01-07T06:57:14.277Z,2.50
2018-01-07T06:58:34.470Z,2.90
2018-01-07T06:59:13.477Z,2.50
2018-01-07T07:00:13.440Z,2.80
2018-01-07T07:01:13.436Z,2.90
2018-01-07T07:02:13.459Z,3.00
2018-01-07T07:03:13.414Z,2.70
2018-01-07T07:04:34.439Z,2.60
2018-01-07T07:05:13.426Z,2.60
2018-01-07T07:06:13.444Z,2.50
2018-01-07T07:07:13.421Z,2.60
2018-01-07T07:08:13.446Z,2.50
2018-01-07T07:09:13.455Z,2.50
2018-01-07T07:10:34.427Z,2.80
2018-01-07T07:11:13.412Z,2.80
2018-01-07T07:12:13.416Z,2.90
2018-01-07T07:13:13.422Z,2.40
2018-01-07T07:14:13.416Z,2.80
2018-01-07T07:15:13.383Z,2.80
2018-01-07T07:16:34.418Z,2.60
2018-01-07T07:17:13.412Z,2.50
2018-01-07T07:18:13.408Z,2.80
2018-01-07T07:19:13.409Z,2.80
2018-01-07T07:20:13.418Z,2.70
2018-01-07T07:21:13.429Z,2.70
2018-01-07T07:22:34.409Z,2.50
2018-01-07T07:23:13.465Z,3.00
2018-01-07T07:24:13.392Z,2.60
2018-01-07T07:25:13.395Z,2.80
2018-01-07T07:26:13.423Z,2.70
2018-01-07T07:27:13.395Z,2.80
2018-01-07T07:28:34.397Z,2.80
2018-01-07T07:29:13.411Z,2.70
2018-01-07T07:30:13.400Z,2.80
2018-01-07T07:31:13.374Z,2.90
2018-01-07T07:32:13.383Z,2.60
2018-01-07T07:33:13.382Z,2.60
2018-01-07T07:34:34.437Z,2.70
2018-01-07T07:35:13.371Z,3.00
2018-01-07T07:36:13.450Z,3.10
2018-01-07T07:37:13.389Z,2.90
2018-01-07T07:38:13.378Z,3.10
2018-01-07T07:39:13.379Z,2.90
2018-01-07T07:40:34.455Z,3.00
2018-01-07T07:41:13.359Z,2.80
2018-01-07T07:42:13.355Z,3.20
2018-01-07T07:43:13.371Z,3.20
2018-01-07T07:44:13.403Z,3.20
2018-01-07T07:45:13.338Z,3.60
2018-01-07T07:46:34.365Z,3.40
2018-01-07T07:47:13.360Z,3.50
2018-01-07T07:48:13.426Z,3.40
2018-01-07T07:49:13.415Z,3.20
2018-01-07T07:50:13.352Z,3.20
2018-01-07T07:51:13.358Z,3.30
2018-01-07T07:52:34.365Z,3.50
2018-01-07T07:53:13.362Z,3.60
2018-01-07T07:54:13.361Z,3.90
2018-01-07T07:55:13.376Z,3.70
2018-01-07T07:56:13.404Z,3.30
2018-01-07T07:57:13.326Z,3.40
2018-01-07T07:58:34.335Z,3.80
2018-01-07T07:59:13.332Z,3.50
2018-01-07T08:00:13.316Z,3.80
2018-01-07T08:01:13.338Z,3.90
2018-01-07T08:02:13.371Z,3.40
2018-01-07T08:03:13.333Z,3.60
2018-01-07T08:04:34.340Z,3.30
2018-01-07T08:05:13.338Z,3.30
2018-01-07T08:06:13.309Z,3.60
2018-01-07T08:07:13.325Z,3.70
2018-01-07T08:08:13.318Z,3.60
2018-01-07T08:09:14.266Z,3.80
2018-01-07T08:10:34.368Z,3.40
2018-01-07T08:11:13.318Z,3.80
2018-01-07T08:12:13.309Z,3.50
2018-01-07T08:13:13.349Z,3.60
2018-01-07T08:14:13.407Z,3.40
2018-01-07T08:15:13.337Z,3.40
2018-01-07T08:16:34.336Z,4.10
2018-01-07T08:17:13.328Z,3.60
2018-01-07T08:18:13.300Z,3.90
2018-01-07T08:19:13.400Z,4.00
2018-01-07T08:20:13.296Z,3.70
2018-01-07T08:21:13.345Z,3.90
2018-01-07T08:22:34.333Z,3.40
2018-01-07T08:23:13.366Z,3.60
2018-01-07T08:24:13.288Z,3.70
2018-01-07T08:25:13.299Z,3.90
2018-01-07T08:26:13.313Z,4.00
2018-01-07T08:27:13.352Z,3.50
2018-01-07T08:28:34.311Z,3.70
2018-01-07T08:29:13.338Z,3.20
2018-01-07T08:30:13.326Z,3.60
2018-01-07T08:31:13.290Z,3.80
2018-01-07T08:32:13.382Z,3.60
2018-01-07T08:33:13.277Z,4.40
2018-01-07T08:34:34.274Z,4.00
2018-01-07T08:35:13.264Z,3.80
2018-01-07T08:36:13.269Z,3.70
2018-01-07T08:37:13.273Z,4.00
2018-01-07T08:38:13.266Z,4.00
2018-01-07T08:39:13.288Z,3.60
2018-01-07T08:40:34.303Z,3.70
2018-01-07T08:41:13.279Z,3.80
2018-01-07T08:42:13.303Z,4.00
2018-01-07T08:43:13.306Z,3.50
2018-01-07T08:44:13.272Z,4.00
2018-01-07T08:45:13.322Z,4.00
2018-01-07T08:46:34.329Z,3.90
2018-01-07T08:47:13.261Z,3.90
2018-01-07T08:48:13.265Z,3.90
2018-01-07T08:49:13.315Z,4.10
2018-01-07T08:50:13.277Z,4.30
2018-01-07T08:51:13.284Z,4.20
2018-01-07T08:52:34.295Z,4.20
2018-01-07T08:53:13.261Z,4.00
2018-01-07T08:54:13.258Z,3.90
2018-01-07T08:55:13.250Z,4.30
2018-01-07T08:56:13.238Z,4.10
2018-01-07T08:57:13.239Z,4.20
2018-01-07T08:58:34.263Z,4.20
2018-01-07T08:59:13.242Z,3.80
2018-01-07T09:00:13.320Z,3.90
2018-01-07T09:01:13.252Z,4.30
2018-01-07T09:02:13.256Z,3.80
2018-01-07T09:03:13.237Z,4.60
2018-01-07T09:04:34.250Z,4.10
2018-01-07T09:05:13.258Z,4.20
2018-01-07T09:06:13.248Z,4.40
2018-01-07T09:07:13.310Z,4.40
2018-01-07T09:08:13.269Z,3.90
2018-01-07T09:09:13.215Z,4.30
2018-01-07T09:10:34.262Z,4.00
2018-01-07T09:11:13.204Z,4.20
2018-01-07T09:12:13.225Z,4.00
2018-01-07T09:13:13.786Z,3.90
2018-01-07T09:14:13.231Z,4.20
2018-01-07T09:15:13.197Z,3.90
2018-01-07T09:16:34.210Z,4.10
2018-01-07T09:17:13.242Z,3.60
2018-01-07T09:18:13.218Z,4.20
2018-01-07T09:19:13.213Z,3.80
2018-01-07T09:20:13.228Z,4.00
2018-01-07T09:21:13.227Z,3.50
2018-01-07T09:22:34.229Z,4.20
2018-01-07T09:23:13.232Z,3.90
2018-01-07T09:24:13.189Z,3.90
2018-01-07T09:25:13.240Z,3.90
2018-01-07T09:26:13.250Z,4.40
2018-01-07T09:27:13.204Z,3.80
2018-01-07T09:28:34.262Z,3.90
2018-01-07T09:29:13.795Z,3.80
2018-01-07T09:30:13.734Z,3.80
2018-01-07T09:31:13.211Z,3.90
2018-01-07T09:32:13.236Z,4.00
2018-01-07T09:33:13.188Z,4.30
2018-01-07T09:34:34.219Z,4.00
2018-01-07T09:35:13.198Z,3.90
2018-01-07T09:36:13.186Z,4.00
2018-01-07T09:37:13.221Z,4.60
2018-01-07T09:38:13.239Z,3.90
2018-01-07T09:39:13.197Z,4.30
2018-01-07T09:40:34.201Z,4.40
2018-01-07T09:41:13.239Z,4.30
2018-01-07T09:42:13.184Z,4.40
2018-01-07T09:43:13.215Z,3.90
2018-01-07T09:44:13.192Z,4.30
2018-01-07T09:45:13.194Z,4.40
2018-01-07T09:46:34.258Z,4.00
2018-01-07T09:47:13.207Z,4.70
2018-01-07T09:48:13.212Z,4.10
2018-01-07T09:49:13.196Z,4.00
2018-01-07T09:50:13.239Z,3.90
2018-01-07T09:51:13.206Z,3.80
2018-01-07T09:52:34.199Z,4.00
2018-01-07T09:53:13.181Z,4.20
2018-01-07T09:54:13.387Z,4.30
2018-01-07T09:55:13.247Z,3.90
2018-01-07T09:56:13.190Z,4.10
2018-01-07T09:57:13.259Z,4.20
2018-01-07T09:58:34.203Z,3.60
2018-01-07T09:59:13.182Z,4.70
2018-01-07T10:00:13.182Z,4.30
2018-01-07T10:01:13.200Z,4.10
2018-01-07T10:02:13.196Z,4.00
2018-01-07T10:03:13.198Z,4.10
2018-01-07T10:04:34.196Z,3.80
2018-01-07T10:05:13.208Z,4.20
2018-01-07T10:06:13.181Z,4.30
2018-01-07T10:07:13.227Z,4.00
2018-01-07T10:08:13.181Z,4.70
2018-01-07T10:09:13.213Z,4.50
2018-01-07T10:10:34.169Z,4.10
2018-01-07T10:11:13.197Z,4.60
2018-01-07T10:12:13.171Z,4.20
2018-01-07T10:13:13.166Z,4.10
2018-01-07T10:14:13.170Z,4.30
2018-01-07T10:15:13.174Z,4.40
2018-01-07T10:16:34.203Z,4.70
2018-01-07T10:17:13.234Z,4.30
2018-01-07T10:18:13.203Z,4.40
2018-01-07T10:19:13.161Z,4.00
2018-01-07T10:20:13.218Z,4.10
2018-01-07T10:21:13.219Z,4.50
2018-01-07T10:22:34.193Z,4.70
2018-01-07T10:23:13.181Z,4.40
2018-01-07T10:24:13.174Z,4.20
2018-01-07T10:25:13.175Z,4.20
2018-01-07T10:26:13.183Z,4.00
2018-01-07T10:27:13.239Z,4.30
2018-01-07T10:28:34.186Z,4.50
2018-01-07T10:29:13.180Z,4.10
2018-01-07T10:30:13.174Z,4.10
2018-01-07T10:31:13.173Z,3.90
2018-01-07T10:32:13.182Z,4.10
2018-01-07T10:33:13.196Z,4.20
2018-01-07T10:34:34.167Z,4.50
2018-01-07T10:35:13.183Z,4.80
2018-01-07T10:36:13.233Z,4.50
2018-01-07T10:37:13.197Z,4.30
2018-01-07T10:38:13.162Z,4.80
2018-01-07T10:39:13.164Z,4.20
2018-01-07T10:40:34.171Z,4.30
2018-01-07T10:41:13.230Z,4.40
2018-01-07T10:42:13.193Z,4.60
2018-01-07T10:43:13.170Z,4.10
2018-01-07T10:44:13.191Z,4.30
2018-01-07T10:45:13.170Z,4.30
2018-01-07T10:46:34.251Z,4.30
2018-01-07T10:47:13.241Z,4.50
2018-01-07T10:48:13.189Z,4.80
2018-01-07T10:49:13.178Z,4.20
2018-01-07T10:50:13.175Z,4.10
2018-01-07T10:51:13.220Z,4.20
2018-01-07T10:52:34.241Z,4.50
2018-01-07T10:53:13.173Z,4.30
2018-01-07T10:54:13.161Z,4.40
2018-01-07T10:55:13.165Z,4.60
2018-01-07T10:56:13.168Z,4.30
2018-01-07T10:57:13.344Z,4.40
2018-01-07T10:58:34.182Z,4.40
2018-01-07T10:59:13.167Z,4.10
2018-01-07T11:00:13.170Z,4.40
2018-01-07T11:01:13.196Z,4.40
2018-01-07T11:02:13.237Z,4.50
2018-01-07T11:03:13.167Z,5.70
2018-01-07T11:04:34.182Z,4.70
2018-01-07T11:05:13.175Z,4.10
2018-01-07T11:06:13.178Z,4.60
2018-01-07T11:07:13.222Z,4.50
2018-01-07T11:08:13.173Z,4.50
2018-01-07T11:09:13.179Z,4.10
2018-01-07T11:10:34.211Z,5.10
2018-01-07T11:11:13.210Z,4.40
2018-01-07T11:12:13.172Z,4.80
2018-01-07T11:13:13.169Z,4.40
2018-01-07T11:14:13.183Z,4.80
2018-01-07T11:15:13.205Z,4.20
2018-01-07T11:16:34.202Z,4.60
2018-01-07T11:17:13.171Z,4.20
2018-01-07T11:18:13.202Z,4.40
2018-01-07T11:19:13.162Z,4.40
2018-01-07T11:20:13.170Z,4.40
2018-01-07T11:21:13.191Z,4.80
2018-01-07T11:22:34.205Z,4.50
2018-01-07T11:23:13.180Z,4.50
2018-01-07T11:24:13.186Z,4.40
2018-01-07T11:25:13.191Z,4.80
2018-01-07T11:26:13.213Z,4.60
2018-01-07T11:27:13.184Z,4.80
2018-01-07T11:28:34.205Z,4.90
2018-01-07T11:29:13.188Z,4.40
2018-01-07T11:30:13.202Z,4.90
2018-01-07T11:31:13.171Z,4.80
2018-01-07T11:32:13.193Z,4.50
2018-01-07T11:33:13.183Z,4.50
2018-01-07T11:34:34.193Z,4.30
2018-01-07T11:35:13.178Z,4.40
2018-01-07T11:36:13.180Z,4.70
2018-01-07T11:37:13.188Z,4.30
2018-01-07T11:38:13.222Z,3.90
2018-01-07T11:39:13.219Z,4.00
2018-01-07T11:40:34.272Z,4.30
2018-01-07T11:41:13.207Z,4.60
2018-01-07T11:42:13.203Z,4.40
2018-01-07T11:43:13.244Z,4.30
2018-01-07T11:44:13.183Z,4.40
2018-01-07T11:45:13.211Z,4.50
2018-01-07T11:46:34.394Z,4.50
2018-01-07T11:47:13.165Z,4.30
2018-01-07T11:48:13.271Z,4.30
2018-01-07T11:49:13.195Z,4.50
2018-01-07T11:50:13.198Z,4.50
2018-01-07T11:51:13.223Z,4.30
2018-01-07T11:52:34.257Z,4.80
2018-01-07T11:53:13.215Z,4.40
2018-01-07T11:54:13.254Z,4.50
2018-01-07T11:55:13.282Z,4.20
2018-01-07T11:56:13.226Z,4.70
2018-01-07T11:57:13.212Z,4.40
2018-01-07T11:58:34.209Z,4.60
2018-01-07T11:59:13.220Z,4.30
2018-01-07T12:00:13.231Z,4.00
2018-01-07T12:01:13.275Z,4.80
2018-01-07T12:02:13.194Z,4.70
2018-01-07T12:03:13.196Z,4.60
2018-01-07T12:04:34.189Z,4.80
2018-01-07T12:05:13.230Z,4.40
2018-01-07T12:06:13.207Z,4.60
2018-01-07T12:07:13.217Z,4.20
2018-01-07T12:08:13.203Z,4.60
2018-01-07T12:09:13.191Z,4.30
2018-01-07T12:10:34.209Z,4.50
2018-01-07T12:11:13.203Z,4.50
2018-01-07T12:12:13.221Z,4.60
2018-01-07T12:13:13.176Z,4.30
2018-01-07T12:14:13.212Z,4.40
2018-01-07T12:15:13.234Z,4.50
2018-01-07T12:16:34.217Z,4.20
2018-01-07T12:17:13.208Z,4.30
2018-01-07T12:18:13.242Z,4.30
2018-01-07T12:19:13.218Z,4.60
2018-01-07T12:20:13.199Z,4.50
2018-01-07T12:21:13.182Z,4.30
2018-01-07T12:22:34.237Z,4.30
2018-01-07T12:23:13.189Z,4.30
2018-01-07T12:24:13.208Z,4.10
2018-01-07T12:25:13.316Z,4.70
2018-01-07T12:26:13.209Z,4.30
2018-01-07T12:27:13.191Z,4.60
2018-01-07T12:28:34.203Z,4.00
2018-01-07T12:29:13.215Z,4.30
2018-01-07T12:30:13.212Z,4.60
2018-01-07T12:31:13.219Z,4.10
2018-01-07T12:32:13.175Z,4.10
2018-01-07T12:33:13.201Z,5.10
2018-01-07T12:34:34.852Z,4.80
2018-01-07T12:35:13.191Z,4.30
2018-01-07T12:36:13.199Z,4.20
2018-01-07T12:37:13.208Z,4.40
2018-01-07T12:38:13.179Z,4.40
2018-01-07T12:39:13.230Z,4.20
2018-01-07T12:40:34.253Z,4.70
2018-01-07T12:41:13.196Z,4.80
2018-01-07T12:42:13.218Z,4.80
2018-01-07T12:43:13.203Z,4.80
2018-01-07T12:44:13.186Z,5.10
2018-01-07T12:45:13.174Z,4.70
2018-01-07T12:46:34.224Z,4.70
2018-01-07T12:47:13.191Z,4.70
2018-01-07T12:48:13.451Z,4.60
2018-01-07T12:49:13.242Z,4.30
2018-01-07T12:50:13.209Z,5.00
2018-01-07T12:51:13.205Z,4.60
2018-01-07T12:52:34.164Z,5.10
2018-01-07T12:53:13.259Z,5.00
2018-01-07T12:54:13.176Z,4.60
2018-01-07T12:55:13.168Z,5.00
2018-01-07T12:56:13.180Z,5.60
2018-01-07T12:57:13.201Z,5.20
2018-01-07T12:58:34.193Z,5.00
2018-01-07T12:59:13.186Z,4.90
2018-01-07T13:00:13.172Z,4.70
2018-01-07T13:01:13.225Z,5.10
2018-01-07T13:02:13.160Z,4.30
2018-01-07T13:03:13.279Z,4.70
2018-01-07T13:04:34.212Z,4.50
2018-01-07T13:05:13.155Z,5.00
2018-01-07T13:06:13.191Z,4.70
2018-01-07T13:07:13.192Z,4.50
2018-01-07T13:08:13.183Z,4.90
2018-01-07T13:09:13.172Z,5.30
2018-01-07T13:10:34.162Z,5.10
2018-01-07T13:11:13.195Z,4.60
2018-01-07T13:12:13.137Z,4.90